VTBS

Suvarnabhumi Airport

Bangkok, Thailand
TAF VTBS 241700Z 2418/2524 10005KT 9999 FEW020 BECMG 2502/2504 20005KT FEW020 SCT040 TEMPO 2504/2510 20015KT 5000 TSRA FEW018CB SCT035 BKN100
Issued Valid From Valid To
Sep-24 @ 17:00 UTC
(7 hours ago)
Sep-24 @ 18:00 UTC
(6 hours ago)
Sep-26 @ 00:00 UTC
(in 24 hours)
Sep-24 @ 18:00 to Sep-25 @ 02:00
TAF VTBS 241700Z 2418/2524 10005KT 9999 FEW020
Wind Visibility Clouds
100° at 5 knots 10,000+ meters
  • Few at 2,000' AGL
Becoming Sep-25 @ 02:00 to Sep-26 @ 00:00
BECMG 2502/2504 20005KT FEW020 SCT040
Wind Visibility Clouds
200° at 5 knots 10,000+ meters
  • Few at 2,000' AGL
  • Scattered at 4,000' AGL
Temporary Sep-25 @ 04:00 to Sep-25 @ 10:00
TEMPO 2504/2510 20015KT 5000 TSRA FEW018CB SCT035 BKN100
Wind Visibility Clouds Conditions
200° at 15 knots 5,005 meters
  • Few at 1,800' AGL
  • Scattered at 3,500' AGL
  • Broken at 10,000' AGL
  • Thunderstorm
  • Rain
TAF VTBS 241700Z 2418/2524 10005KT 9999 FEW020 BECMG 2502/2504 20005KT FEW020 SCT040 TEMPO 2504/2510 20015KT 5000 TSRA FEW018CB SCT035 BKN100
Issued Sep-24 @ 17:00 UTC
(7 hours ago)
Valid From Sep-24 @ 18:00 UTC
(6 hours ago)
Valid To Sep-26 @ 00:00 UTC
(in 24 hours)
Sep-24 @ 18:00 - Sep-25 @ 02:00
Wind Visibility
100° at 5 knots 10,000+ meters
Clouds
  • Few at 2,000' AGL
Becoming Sep-25 @ 02:00 - Sep-26 @ 00:00
Wind Visibility
200° at 5 knots 10,000+ meters
Clouds
  • Few at 2,000' AGL
  • Scattered at 4,000' AGL
Temporary Sep-25 @ 04:00 - Sep-25 @ 10:00
Wind Visibility
200° at 15 knots 5,005 meters
Clouds
  • Few at 1,800' AGL
  • Scattered at 3,500' AGL
  • Broken at 10,000' AGL
Conditions
  • Thunderstorm
  • Rain